createdAt,value
2023-05-15T00:00:15.708Z,16.85
2023-05-15T00:14:07.254Z,16.80
2023-05-15T00:16:50.330Z,16.78
2023-05-15T00:23:15.181Z,16.69
2023-05-15T00:26:29.194Z,16.65
2023-05-15T00:29:03.058Z,16.58
2023-05-15T00:37:53.738Z,16.46
2023-05-15T00:40:25.449Z,16.45
2023-05-15T00:42:58.225Z,16.41
2023-05-15T00:54:46.320Z,16.34
2023-05-15T00:57:44.639Z,16.38
2023-05-15T01:00:19.102Z,16.33
2023-05-15T01:06:00.390Z,16.28
2023-05-15T01:08:40.309Z,16.29
2023-05-15T01:11:11.588Z,16.26
2023-05-15T01:16:34.692Z,16.21
2023-05-15T01:19:17.491Z,16.21
2023-05-15T01:22:13.741Z,16.17
2023-05-15T01:25:01.546Z,16.16
2023-05-15T01:27:38.177Z,16.15
2023-05-15T01:30:21.640Z,16.14
2023-05-15T01:32:57.497Z,16.10
2023-05-15T01:35:47.797Z,16.04
2023-05-15T01:38:27.813Z,16.02
2023-05-15T01:41:06.972Z,15.94
2023-05-15T01:43:43.903Z,15.92
2023-05-15T01:46:15.796Z,15.87
2023-05-15T01:48:47.088Z,15.85
2023-05-15T01:51:16.110Z,15.85
2023-05-15T01:53:47.643Z,15.80
2023-05-15T01:56:17.053Z,15.80
2023-05-15T01:58:49.751Z,15.76
2023-05-15T02:01:21.213Z,15.73
2023-05-15T02:03:50.671Z,15.70
2023-05-15T02:06:22.199Z,15.72
2023-05-15T02:17:30.498Z,15.67
2023-05-15T02:19:58.964Z,15.62
2023-05-15T02:22:27.157Z,15.60
2023-05-15T02:25:00.274Z,15.57
2023-05-15T02:30:39.784Z,15.49
2023-05-15T02:33:26.277Z,15.44
2023-05-15T02:36:04.373Z,15.39
2023-05-15T02:38:42.400Z,15.35
2023-05-15T02:41:12.075Z,15.27
2023-05-15T02:43:41.610Z,15.26
2023-05-15T02:46:13.094Z,15.26
2023-05-15T02:48:44.419Z,15.17
2023-05-15T02:51:22.435Z,15.16
2023-05-15T02:53:50.941Z,15.10
2023-05-15T02:56:19.409Z,15.07
2023-05-15T02:58:51.863Z,15.03
2023-05-15T03:01:21.413Z,14.99
2023-05-15T03:03:51.133Z,14.93
2023-05-15T03:06:19.868Z,14.88
2023-05-15T03:08:50.338Z,14.87
2023-05-15T03:11:21.321Z,14.84
2023-05-15T03:16:46.816Z,14.80
2023-05-15T03:19:19.280Z,14.76
2023-05-15T03:21:47.714Z,14.77
2023-05-15T03:24:15.883Z,14.73
2023-05-15T03:26:45.243Z,14.71
2023-05-15T03:29:13.366Z,14.66
2023-05-15T03:31:43.477Z,14.63
2023-05-15T03:34:11.908Z,14.61
2023-05-15T03:36:41.534Z,14.60
2023-05-15T03:39:09.593Z,14.55
2023-05-15T03:41:43.083Z,14.53
2023-05-15T03:44:11.470Z,14.50
2023-05-15T03:46:40.023Z,14.51
2023-05-15T03:49:08.118Z,14.50
2023-05-15T03:51:37.358Z,14.46
2023-05-15T03:54:08.592Z,14.44
2023-05-15T03:56:37.679Z,14.43
2023-05-15T03:59:09.116Z,14.41
2023-05-15T04:01:50.318Z,14.39
2023-05-15T04:04:28.162Z,14.35
2023-05-15T04:09:57.291Z,14.28
2023-05-15T04:12:28.350Z,14.27
2023-05-15T04:15:00.774Z,14.22
2023-05-15T04:17:28.704Z,14.24
2023-05-15T04:19:59.329Z,14.22
2023-05-15T04:22:27.934Z,14.22
2023-05-15T04:24:58.262Z,14.21
2023-05-15T04:27:27.465Z,14.21
2023-05-15T04:29:59.916Z,14.21
2023-05-15T04:32:30.995Z,14.20
2023-05-15T04:35:00.644Z,14.20
2023-05-15T04:37:31.832Z,14.18
2023-05-15T04:40:06.812Z,14.18
2023-05-15T04:42:35.721Z,14.18
2023-05-15T04:45:04.161Z,14.17
2023-05-15T04:47:34.680Z,14.17
2023-05-15T04:50:04.340Z,14.17
2023-05-15T04:52:32.544Z,14.16
2023-05-15T04:55:02.175Z,14.18
2023-05-15T04:57:43.276Z,14.15
2023-05-15T05:00:13.202Z,14.18
2023-05-15T05:02:47.736Z,14.20
2023-05-15T05:06:16.981Z,14.22
2023-05-15T05:08:45.090Z,14.17
2023-05-15T05:11:17.590Z,14.20
2023-05-15T05:13:48.904Z,14.22
2023-05-15T05:16:17.265Z,14.24
2023-05-15T05:18:45.653Z,14.28
2023-05-15T05:21:14.456Z,14.28
2023-05-15T05:23:51.917Z,14.30
2023-05-15T05:26:22.896Z,14.31
2023-05-15T05:28:51.537Z,14.33
2023-05-15T05:31:22.988Z,14.35
2023-05-15T05:33:52.897Z,14.40
2023-05-15T05:36:23.308Z,14.46
2023-05-15T05:38:52.205Z,14.49
2023-05-15T05:41:26.520Z,14.50
2023-05-15T05:43:54.623Z,14.52
2023-05-15T05:49:02.976Z,14.59
2023-05-15T06:03:04.778Z,14.84
2023-05-15T06:08:07.835Z,14.96
2023-05-15T06:10:36.757Z,15.02
2023-05-15T06:13:07.483Z,15.13
2023-05-15T06:15:37.797Z,15.23
2023-05-15T06:20:51.284Z,15.39
2023-05-15T06:23:19.502Z,15.47
2023-05-15T06:25:48.598Z,15.49
2023-05-15T06:31:01.129Z,15.51
2023-05-15T06:33:34.894Z,15.52
2023-05-15T06:36:03.821Z,15.51
2023-05-15T06:38:43.601Z,15.51
2023-05-15T06:41:13.156Z,15.49
2023-05-15T06:43:41.723Z,15.51
2023-05-15T06:46:18.111Z,15.62
2023-05-15T06:48:46.882Z,15.64
2023-05-15T06:51:15.402Z,15.65
2023-05-15T06:53:49.839Z,15.66
2023-05-15T07:10:29.578Z,16.26
2023-05-15T07:12:57.768Z,16.43
2023-05-15T07:15:26.134Z,16.57
2023-05-15T07:18:00.599Z,16.64
2023-05-15T07:20:40.262Z,16.70
2023-05-15T07:23:13.074Z,16.75
2023-05-15T07:25:57.228Z,16.62
2023-05-15T07:28:26.837Z,16.52
2023-05-15T07:30:57.831Z,16.52
2023-05-15T07:33:40.591Z,16.52
2023-05-15T07:36:09.115Z,16.49
2023-05-15T07:38:41.853Z,16.53
2023-05-15T07:44:55.851Z,16.39
2023-05-15T07:47:33.042Z,16.39
2023-05-15T07:50:01.184Z,16.45
2023-05-15T07:52:29.440Z,16.50
2023-05-15T07:54:57.486Z,16.59
2023-05-15T08:00:41.072Z,16.81
2023-05-15T08:03:13.092Z,16.86
2023-05-15T08:05:42.044Z,16.87
2023-05-15T08:08:10.728Z,16.86
2023-05-15T08:10:39.625Z,16.76
2023-05-15T08:13:07.623Z,16.65
2023-05-15T08:15:35.824Z,16.50
2023-05-15T08:18:10.507Z,16.35
2023-05-15T08:20:38.965Z,16.29
2023-05-15T08:23:08.052Z,16.31
2023-05-15T08:25:44.826Z,16.38
2023-05-15T08:28:12.902Z,16.54
2023-05-15T08:30:41.423Z,16.57
2023-05-15T08:33:11.255Z,16.56
2023-05-15T08:38:24.085Z,16.52
2023-05-15T08:40:55.822Z,16.44
2023-05-15T08:43:25.296Z,16.36
2023-05-15T08:45:55.421Z,16.26
2023-05-15T08:48:26.598Z,16.19
2023-05-15T08:50:57.993Z,16.11
2023-05-15T08:55:54.908Z,16.25
2023-05-15T08:58:26.249Z,16.38
2023-05-15T09:00:56.234Z,16.42
2023-05-15T09:03:26.006Z,16.57
2023-05-15T09:05:55.081Z,16.65
2023-05-15T09:08:25.468Z,16.80
2023-05-15T09:10:57.842Z,16.88
2023-05-15T09:13:25.931Z,16.97
2023-05-15T09:15:54.202Z,16.99
2023-05-15T09:18:22.666Z,17.09
2023-05-15T09:20:54.686Z,17.08
2023-05-15T09:23:26.057Z,17.02
2023-05-15T09:25:57.064Z,17.06
2023-05-15T09:28:36.973Z,16.96
2023-05-15T09:31:06.490Z,16.94
2023-05-15T09:33:36.517Z,16.96
2023-05-15T09:36:07.754Z,16.98
2023-05-15T09:38:41.093Z,16.85
2023-05-15T09:41:11.571Z,16.84
2023-05-15T09:43:41.100Z,16.86
2023-05-15T09:46:12.432Z,16.90
2023-05-15T09:48:40.731Z,16.97
2023-05-15T09:51:17.301Z,16.93
2023-05-15T09:53:50.675Z,16.94
2023-05-15T09:56:22.557Z,16.88
2023-05-15T09:59:01.528Z,16.86
2023-05-15T10:01:38.179Z,16.80
2023-05-15T10:04:08.158Z,16.69
2023-05-15T10:06:44.751Z,16.71
2023-05-15T10:09:15.616Z,16.73
2023-05-15T10:11:53.322Z,16.77
2023-05-15T10:14:23.663Z,16.79
2023-05-15T10:16:55.227Z,16.80
2023-05-15T10:19:27.509Z,16.79
2023-05-15T10:21:59.904Z,16.81
2023-05-15T10:24:36.463Z,16.87
2023-05-15T10:27:06.273Z,16.89
2023-05-15T10:29:40.084Z,16.96
2023-05-15T10:32:08.316Z,16.96
2023-05-15T10:34:40.124Z,16.98
2023-05-15T10:37:13.588Z,17.03
2023-05-15T10:39:53.237Z,17.04
2023-05-15T10:42:22.276Z,17.07
2023-05-15T10:44:53.070Z,17.15
2023-05-15T10:47:21.954Z,17.14
2023-05-15T10:49:56.061Z,17.22
2023-05-15T10:52:26.303Z,17.23
2023-05-15T10:54:58.688Z,17.20
2023-05-15T10:57:40.335Z,17.21
2023-05-15T11:00:29.245Z,17.21
2023-05-15T11:03:17.356Z,17.25
2023-05-15T11:06:11.525Z,17.25
2023-05-15T11:17:43.508Z,17.31
2023-05-15T11:24:12.691Z,17.33
2023-05-15T11:27:25.800Z,17.34
2023-05-15T11:31:05.290Z,17.46
2023-05-15T11:36:29.405Z,17.51
2023-05-15T11:40:05.030Z,17.53
2023-05-15T11:45:48.587Z,17.49
2023-05-15T11:48:18.425Z,17.65
2023-05-15T11:53:40.281Z,17.74
2023-05-15T11:56:15.420Z,17.82
2023-05-15T11:58:52.064Z,17.91
2023-05-15T12:01:55.328Z,17.91
2023-05-15T12:04:28.395Z,17.83
2023-05-15T12:06:57.631Z,17.81
2023-05-15T12:18:42.306Z,17.85
2023-05-15T12:21:26.328Z,17.81
2023-05-15T12:24:08.187Z,17.84
2023-05-15T12:26:39.822Z,17.86
2023-05-15T12:29:29.383Z,17.81
2023-05-15T12:32:07.179Z,17.76
2023-05-15T12:34:38.803Z,17.77
2023-05-15T12:37:25.672Z,17.81
2023-05-15T12:40:04.006Z,17.91
2023-05-15T12:42:51.153Z,17.89
2023-05-15T12:45:29.656Z,17.90
2023-05-15T12:48:01.608Z,17.99
2023-05-15T12:50:35.026Z,18.13
2023-05-15T12:53:35.617Z,18.21
2023-05-15T12:56:06.399Z,18.41
2023-05-15T12:59:09.562Z,18.63
2023-05-15T13:02:07.422Z,18.85
2023-05-15T13:04:49.204Z,18.86
2023-05-15T13:07:23.259Z,19.08
2023-05-15T13:10:11.846Z,19.28
2023-05-15T13:12:52.883Z,19.68
2023-05-15T13:15:31.368Z,19.97
2023-05-15T13:18:14.866Z,20.25
2023-05-15T13:20:45.376Z,20.53
2023-05-15T13:23:16.778Z,20.78
2023-05-15T13:25:56.320Z,20.87
2023-05-15T13:28:24.924Z,21.07
2023-05-15T13:30:59.278Z,21.31
2023-05-15T13:33:31.263Z,21.58
2023-05-15T13:36:22.534Z,21.50
2023-05-15T13:38:54.163Z,21.65
2023-05-15T13:41:29.927Z,21.83
2023-05-15T13:43:58.094Z,21.89
2023-05-15T13:46:34.496Z,21.87
2023-05-15T13:49:03.038Z,21.76
2023-05-15T13:51:38.342Z,21.76
2023-05-15T13:54:31.066Z,21.82
2023-05-15T13:57:16.144Z,22.16
2023-05-15T13:59:47.095Z,22.28
2023-05-15T14:02:15.352Z,22.08
2023-05-15T14:04:58.136Z,22.20
2023-05-15T14:07:31.236Z,21.94
2023-05-15T14:10:20.255Z,21.63
2023-05-15T14:19:13.055Z,22.31
2023-05-15T14:22:29.741Z,22.67
2023-05-15T14:31:07.198Z,22.90
2023-05-15T14:42:44.794Z,23.18
2023-05-15T14:45:23.350Z,23.48
2023-05-15T14:47:58.333Z,23.47
2023-05-15T14:50:40.218Z,23.48
2023-05-15T14:53:09.334Z,23.34
2023-05-15T14:55:38.548Z,23.21
2023-05-15T14:58:25.517Z,23.07
2023-05-15T15:00:59.242Z,23.26
2023-05-15T15:03:34.517Z,23.23
2023-05-15T15:06:13.077Z,23.31
2023-05-15T15:09:01.882Z,23.67
2023-05-15T15:11:53.412Z,24.05
2023-05-15T15:14:32.508Z,24.39
2023-05-15T15:23:06.935Z,24.53
2023-05-15T15:25:44.203Z,24.55
2023-05-15T15:28:12.835Z,24.32
2023-05-15T15:30:51.739Z,24.26
2023-05-15T15:33:21.577Z,24.37
2023-05-15T15:36:00.825Z,24.57
2023-05-15T15:41:46.219Z,24.92
2023-05-15T15:44:17.647Z,25.13
2023-05-15T15:46:47.748Z,25.39
2023-05-15T15:49:34.074Z,25.43
2023-05-15T15:52:30.016Z,24.99
2023-05-15T15:55:09.088Z,25.13
2023-05-15T15:57:48.838Z,25.38
2023-05-15T16:06:07.082Z,25.36
2023-05-15T16:09:26.227Z,25.51
2023-05-15T16:12:03.868Z,25.62
2023-05-15T16:14:44.953Z,25.70
2023-05-15T16:17:13.183Z,25.49
2023-05-15T16:19:44.884Z,25.63
2023-05-15T16:22:33.543Z,25.61
2023-05-15T16:25:10.890Z,25.77
2023-05-15T16:28:37.109Z,25.78
2023-05-15T16:48:32.120Z,26.08
2023-05-15T16:51:01.814Z,26.27
2023-05-15T16:53:40.399Z,26.43
2023-05-15T16:56:42.116Z,26.60
2023-05-15T16:59:34.734Z,26.67
2023-05-15T17:02:07.962Z,26.49
2023-05-15T17:04:58.513Z,26.29
2023-05-15T17:07:36.302Z,26.19
2023-05-15T17:10:07.716Z,26.17
2023-05-15T17:12:36.143Z,26.12
2023-05-15T17:15:09.256Z,26.08
2023-05-15T17:17:42.348Z,26.23
2023-05-15T17:20:26.552Z,26.32
2023-05-15T17:23:25.202Z,26.41
2023-05-15T17:25:54.080Z,26.27
2023-05-15T17:28:22.381Z,26.19
2023-05-15T17:31:20.032Z,26.18
2023-05-15T17:37:07.615Z,26.25
2023-05-15T17:45:17.566Z,26.04
2023-05-15T17:50:29.711Z,26.03
2023-05-15T17:53:04.933Z,26.15
2023-05-15T17:55:52.646Z,26.27
2023-05-15T17:58:21.385Z,26.34
2023-05-15T18:00:52.449Z,26.32
2023-05-15T18:03:23.953Z,26.31
2023-05-15T18:05:53.745Z,26.24
2023-05-15T18:08:22.058Z,26.13
2023-05-15T18:10:50.742Z,26.10
2023-05-15T18:19:31.197Z,25.65
2023-05-15T18:22:02.989Z,25.75
2023-05-15T18:24:31.396Z,25.77
2023-05-15T18:27:05.068Z,25.83
2023-05-15T18:29:33.287Z,25.76
2023-05-15T18:35:29.256Z,25.22
2023-05-15T18:38:05.995Z,25.14
2023-05-15T18:40:35.989Z,25.08
2023-05-15T18:43:06.443Z,24.86
2023-05-15T18:45:35.540Z,24.74
2023-05-15T18:48:04.250Z,24.43
2023-05-15T18:51:06.260Z,24.11
2023-05-15T18:53:39.540Z,23.86
2023-05-15T18:56:27.602Z,23.77
2023-05-15T18:59:15.434Z,23.68
2023-05-15T19:01:54.586Z,23.52
2023-05-15T19:08:13.277Z,22.52
2023-05-15T19:10:44.704Z,21.89
2023-05-15T19:16:11.689Z,20.77
2023-05-15T19:18:53.585Z,20.25
2023-05-15T19:21:22.741Z,19.93
2023-05-15T19:24:00.945Z,19.55
2023-05-15T19:26:54.659Z,19.22
2023-05-15T19:29:31.334Z,18.90
2023-05-15T19:32:00.635Z,18.62
2023-05-15T19:34:34.139Z,18.43
2023-05-15T19:37:13.021Z,18.21
2023-05-15T19:42:28.542Z,17.83
2023-05-15T19:53:38.051Z,17.30
2023-05-15T19:59:19.453Z,17.10
2023-05-15T21:02:09.885Z,15.58
2023-05-15T21:04:39.367Z,15.55
2023-05-15T21:07:27.878Z,15.47
2023-05-15T21:09:56.233Z,15.40
2023-05-15T21:12:24.917Z,15.35
2023-05-15T21:14:53.862Z,15.28
2023-05-15T21:17:33.677Z,15.20
2023-05-15T21:20:04.179Z,15.18
2023-05-15T21:22:42.284Z,15.14
2023-05-15T21:25:12.207Z,15.15
2023-05-15T21:27:40.897Z,15.15
2023-05-15T21:30:12.046Z,15.17
2023-05-15T21:32:41.711Z,15.12
2023-05-15T21:35:10.776Z,15.13
2023-05-15T21:37:42.031Z,15.09
2023-05-15T21:40:12.848Z,15.10
2023-05-15T21:45:26.464Z,15.07
2023-05-15T21:48:02.102Z,15.06
2023-05-15T21:50:32.779Z,15.04
2023-05-15T21:53:01.755Z,15.02
2023-05-15T21:55:30.098Z,15.00
2023-05-15T21:58:10.095Z,14.99
2023-05-15T22:00:40.541Z,14.98
2023-05-15T22:06:10.238Z,14.98
2023-05-15T22:08:38.525Z,14.97
2023-05-15T22:11:09.257Z,14.99
2023-05-15T22:13:45.015Z,14.99
2023-05-15T22:16:33.464Z,14.98
2023-05-15T22:25:26.257Z,14.97
2023-05-15T22:30:36.996Z,14.89
2023-05-15T22:46:23.070Z,14.84
2023-05-15T22:49:24.192Z,14.80
2023-05-15T22:52:13.686Z,14.79
2023-05-15T23:00:21.102Z,14.68
2023-05-15T23:05:38.996Z,14.64
2023-05-15T23:10:44.358Z,14.61
2023-05-15T23:13:12.814Z,14.55
2023-05-15T23:21:11.883Z,14.53
2023-05-15T23:23:53.446Z,14.50
2023-05-15T23:26:36.647Z,14.50
2023-05-15T23:29:05.022Z,14.50
2023-05-15T23:31:34.422Z,14.48
2023-05-15T23:34:10.779Z,14.46
2023-05-15T23:39:37.980Z,14.48
2023-05-15T23:42:13.087Z,14.44
2023-05-15T23:44:42.298Z,14.40
2023-05-15T23:47:12.517Z,14.39
2023-05-15T23:49:54.619Z,14.38
2023-05-15T23:52:22.980Z,14.35
2023-05-15T23:58:14.214Z,14.32
